createdAt,value
2019-02-02T00:02:52.343Z,3.13
2019-02-02T00:13:49.115Z,3.13
2019-02-02T00:24:52.820Z,3.13
2019-02-02T00:35:54.345Z,3.13
2019-02-02T00:46:54.720Z,3.12
2019-02-02T00:57:59.202Z,3.12
2019-02-02T01:08:52.566Z,3.11
2019-02-02T01:19:56.867Z,3.11
2019-02-02T01:30:59.011Z,3.11
2019-02-02T01:42:00.987Z,3.11
2019-02-02T01:53:02.391Z,3.10
2019-02-02T02:04:02.122Z,3.11
2019-02-02T02:14:59.896Z,3.10
2019-02-02T02:25:59.822Z,3.10
2019-02-02T02:36:57.108Z,3.10
2019-02-02T02:47:59.345Z,3.10
2019-02-02T02:58:56.194Z,3.10
2019-02-02T03:09:57.930Z,3.09
2019-02-02T03:20:55.658Z,3.09
2019-02-02T03:31:59.132Z,3.09
2019-02-02T03:43:02.021Z,3.09
2019-02-02T03:54:09.062Z,3.09
2019-02-02T04:05:11.493Z,3.09
2019-02-02T04:16:13.999Z,3.09
2019-02-02T04:27:14.321Z,3.08
2019-02-02T04:38:17.624Z,3.08
2019-02-02T04:49:19.149Z,3.08
2019-02-02T05:00:22.038Z,3.08
2019-02-02T05:11:25.041Z,3.08
2019-02-02T05:22:30.344Z,3.08
2019-02-02T05:33:06.860Z,3.07
2019-02-02T05:44:10.359Z,3.07
2019-02-02T05:55:07.744Z,3.07
2019-02-02T06:06:10.816Z,3.07
2019-02-02T06:17:05.750Z,3.06
2019-02-02T06:27:58.718Z,3.06
2019-02-02T06:39:02.407Z,3.06
2019-02-02T06:50:05.664Z,3.06
2019-02-02T07:01:04.203Z,3.06
2019-02-02T07:11:46.341Z,3.06
2019-02-02T07:22:52.402Z,3.03
2019-02-02T07:33:47.875Z,3.06
2019-02-02T07:44:57.466Z,3.03
2019-02-02T07:55:53.594Z,3.07
2019-02-02T08:06:54.133Z,3.07
2019-02-02T08:17:56.857Z,3.09
2019-02-02T08:28:57.630Z,3.10
2019-02-02T08:39:51.199Z,3.12
2019-02-02T08:50:55.795Z,3.14
2019-02-02T09:01:57.596Z,3.15
2019-02-02T09:13:00.976Z,3.17
2019-02-02T09:23:57.653Z,3.15
2019-02-02T09:34:58.644Z,3.17
2019-02-02T09:46:00.423Z,3.18
2019-02-02T09:57:00.080Z,3.17
2019-02-02T10:07:58.548Z,3.21
2019-02-02T10:18:57.931Z,3.23
2019-02-02T10:30:01.279Z,3.25
2019-02-02T10:41:01.099Z,3.32
2019-02-02T10:51:42.091Z,3.33
2019-02-02T11:02:37.516Z,3.29
2019-02-02T11:13:34.025Z,3.34
2019-02-02T11:24:32.537Z,3.38
2019-02-02T11:35:29.403Z,3.39
2019-02-02T11:46:27.822Z,3.36
2019-02-02T11:57:25.353Z,3.40
2019-02-02T12:08:22.434Z,3.42
2019-02-02T12:19:24.412Z,3.39
2019-02-02T12:30:26.510Z,3.37
2019-02-02T12:41:04.408Z,3.40
2019-02-02T12:52:02.940Z,3.39
2019-02-02T13:03:07.003Z,3.38
2019-02-02T13:14:02.917Z,3.39
2019-02-02T13:24:58.583Z,3.38
2019-02-02T13:36:00.833Z,3.38
2019-02-02T13:46:57.473Z,3.40
2019-02-02T13:57:56.067Z,3.38
2019-02-02T14:08:50.857Z,3.39
2019-02-02T14:19:43.855Z,3.39
2019-02-02T14:30:16.196Z,3.39
2019-02-02T14:41:00.881Z,3.42
2019-02-02T14:51:42.839Z,3.41
2019-02-02T15:02:43.725Z,3.42
2019-02-02T15:13:40.588Z,3.40
2019-02-02T15:24:36.202Z,3.39
2019-02-02T15:35:33.351Z,3.37
2019-02-02T15:46:31.076Z,3.37
2019-02-02T15:57:32.681Z,3.36
2019-02-02T16:08:25.328Z,3.34
2019-02-02T16:19:22.925Z,3.34
2019-02-02T16:30:20.221Z,3.34
2019-02-02T16:41:19.587Z,3.34
2019-02-02T16:52:15.477Z,3.33
2019-02-02T17:03:15.724Z,3.33
2019-02-02T17:14:18.869Z,3.33
2019-02-02T17:25:17.949Z,3.32
2019-02-02T17:36:19.812Z,3.32
2019-02-02T17:47:18.742Z,3.32
2019-02-02T17:58:17.216Z,3.31
2019-02-02T18:09:06.893Z,3.30
2019-02-02T18:20:10.549Z,3.30
2019-02-02T18:31:12.856Z,3.30
2019-02-02T18:42:14.477Z,3.30
2019-02-02T18:53:07.491Z,3.29
2019-02-02T19:04:07.674Z,3.29
2019-02-02T19:15:06.018Z,3.29
2019-02-02T19:26:00.711Z,3.28
2019-02-02T19:36:56.719Z,3.28
2019-02-02T19:47:53.481Z,3.28
2019-02-02T19:58:53.940Z,3.28
2019-02-02T20:09:49.725Z,3.27
2019-02-02T20:20:47.080Z,3.27
2019-02-02T20:31:45.484Z,3.27
2019-02-02T20:42:41.739Z,3.26
2019-02-02T20:53:48.498Z,3.23
2019-02-02T21:04:50.764Z,3.26
2019-02-02T21:15:51.656Z,3.25
2019-02-02T21:26:52.919Z,3.25
2019-02-02T21:37:49.657Z,3.25
2019-02-02T21:48:46.849Z,3.25
2019-02-02T21:59:48.534Z,3.25
2019-02-02T22:10:28.611Z,3.24
2019-02-02T22:21:27.772Z,3.24
2019-02-02T22:32:23.840Z,3.24
2019-02-02T22:43:17.776Z,3.23
2019-02-02T22:54:19.679Z,3.23
2019-02-02T23:05:21.814Z,3.23
2019-02-02T23:16:18.270Z,3.23
2019-02-02T23:27:18.026Z,3.23
2019-02-02T23:38:20.333Z,3.22
2019-02-02T23:49:22.934Z,3.22
